sensor_id;sensor_type;location;lat;lon;timestamp;P1;durP1;ratioP1;P2;durP2;ratioP2
70406;SDS011;57821;52.202;0.154;2023-12-28T00:01:46;19.73;;;3.33;;
70406;SDS011;57821;52.202;0.154;2023-12-28T00:04:13;23.77;;;3.83;;
70406;SDS011;57821;52.202;0.154;2023-12-28T00:06:40;26.02;;;4.60;;
70406;SDS011;57821;52.202;0.154;2023-12-28T00:09:09;24.83;;;4.32;;
70406;SDS011;57821;52.202;0.154;2023-12-28T00:11:38;30.05;;;4.68;;
70406;SDS011;57821;52.202;0.154;2023-12-28T00:14:05;22.40;;;3.05;;
70406;SDS011;57821;52.202;0.154;2023-12-28T00:16:32;40.25;;;5.45;;
70406;SDS011;57821;52.202;0.154;2023-12-28T00:19:00;26.20;;;5.07;;
70406;SDS011;57821;52.202;0.154;2023-12-28T00:21:29;29.67;;;4.57;;
70406;SDS011;57821;52.202;0.154;2023-12-28T00:23:56;24.10;;;6.32;;
70406;SDS011;57821;52.202;0.154;2023-12-28T00:26:23;34.10;;;4.55;;
70406;SDS011;57821;52.202;0.154;2023-12-28T00:29:01;22.83;;;5.10;;
70406;SDS011;57821;52.202;0.154;2023-12-28T00:31:27;30.67;;;4.70;;
70406;SDS011;57821;52.202;0.154;2023-12-28T00:33:54;33.78;;;4.32;;
70406;SDS011;57821;52.202;0.154;2023-12-28T00:36:22;30.10;;;5.53;;
70406;SDS011;57821;52.202;0.154;2023-12-28T00:38:49;25.63;;;5.38;;
70406;SDS011;57821;52.202;0.154;2023-12-28T00:41:16;22.17;;;3.85;;
70406;SDS011;57821;52.202;0.154;2023-12-28T00:43:43;27.38;;;4.88;;
70406;SDS011;57821;52.202;0.154;2023-12-28T00:46:10;33.40;;;4.20;;
70406;SDS011;57821;52.202;0.154;2023-12-28T00:48:36;28.15;;;4.57;;
70406;SDS011;57821;52.202;0.154;2023-12-28T00:51:03;26.20;;;3.67;;
70406;SDS011;57821;52.202;0.154;2023-12-28T00:53:30;34.40;;;5.13;;
70406;SDS011;57821;52.202;0.154;2023-12-28T00:55:57;20.40;;;3.67;;
70406;SDS011;57821;52.202;0.154;2023-12-28T00:58:24;32.63;;;4.47;;
70406;SDS011;57821;52.202;0.154;2023-12-28T01:00:50;28.10;;;4.85;;
70406;SDS011;57821;52.202;0.154;2023-12-28T01:05:52;28.55;;;5.10;;
70406;SDS011;57821;52.202;0.154;2023-12-28T01:08:19;27.38;;;4.90;;
70406;SDS011;57821;52.202;0.154;2023-12-28T01:10:46;27.50;;;4.68;;
70406;SDS011;57821;52.202;0.154;2023-12-28T01:13:13;25.83;;;4.28;;
70406;SDS011;57821;52.202;0.154;2023-12-28T01:15:40;27.33;;;4.80;;
70406;SDS011;57821;52.202;0.154;2023-12-28T01:18:07;24.92;;;4.65;;
70406;SDS011;57821;52.202;0.154;2023-12-28T01:20:34;24.67;;;3.90;;
70406;SDS011;57821;52.202;0.154;2023-12-28T01:23:03;23.70;;;4.30;;
70406;SDS011;57821;52.202;0.154;2023-12-28T01:25:31;24.88;;;4.70;;
70406;SDS011;57821;52.202;0.154;2023-12-28T01:27:57;26.58;;;3.90;;
70406;SDS011;57821;52.202;0.154;2023-12-28T01:30:25;25.85;;;4.18;;
70406;SDS011;57821;52.202;0.154;2023-12-28T01:32:53;22.55;;;3.92;;
70406;SDS011;57821;52.202;0.154;2023-12-28T01:35:20;22.98;;;5.10;;
70406;SDS011;57821;52.202;0.154;2023-12-28T01:37:47;22.85;;;4.15;;
70406;SDS011;57821;52.202;0.154;2023-12-28T01:40:15;26.38;;;4.28;;
70406;SDS011;57821;52.202;0.154;2023-12-28T01:42:42;24.65;;;4.32;;
70406;SDS011;57821;52.202;0.154;2023-12-28T01:45:09;18.55;;;3.75;;
70406;SDS011;57821;52.202;0.154;2023-12-28T01:47:36;16.08;;;3.10;;
70406;SDS011;57821;52.202;0.154;2023-12-28T01:50:05;19.63;;;4.22;;
70406;SDS011;57821;52.202;0.154;2023-12-28T01:52:32;22.85;;;3.95;;
70406;SDS011;57821;52.202;0.154;2023-12-28T01:55:01;21.20;;;3.20;;
70406;SDS011;57821;52.202;0.154;2023-12-28T01:57:29;17.80;;;3.42;;
70406;SDS011;57821;52.202;0.154;2023-12-28T01:59:56;21.98;;;3.63;;
70406;SDS011;57821;52.202;0.154;2023-12-28T02:02:38;25.95;;;5.03;;
70406;SDS011;57821;52.202;0.154;2023-12-28T02:05:16;18.42;;;3.33;;
70406;SDS011;57821;52.202;0.154;2023-12-28T02:07:44;23.52;;;4.00;;
70406;SDS011;57821;52.202;0.154;2023-12-28T02:10:11;23.88;;;4.20;;
70406;SDS011;57821;52.202;0.154;2023-12-28T02:12:38;18.10;;;3.67;;
70406;SDS011;57821;52.202;0.154;2023-12-28T02:15:05;22.15;;;4.05;;
70406;SDS011;57821;52.202;0.154;2023-12-28T02:20:10;19.55;;;3.80;;
70406;SDS011;57821;52.202;0.154;2023-12-28T02:22:38;24.33;;;3.78;;
70406;SDS011;57821;52.202;0.154;2023-12-28T02:25:08;23.90;;;4.88;;
70406;SDS011;57821;52.202;0.154;2023-12-28T02:27:36;33.00;;;5.28;;
70406;SDS011;57821;52.202;0.154;2023-12-28T02:30:06;21.55;;;3.90;;
70406;SDS011;57821;52.202;0.154;2023-12-28T02:32:47;20.63;;;3.67;;
70406;SDS011;57821;52.202;0.154;2023-12-28T02:38:10;21.98;;;3.72;;
70406;SDS011;57821;52.202;0.154;2023-12-28T02:40:40;20.15;;;4.03;;
70406;SDS011;57821;52.202;0.154;2023-12-28T02:43:11;21.17;;;4.32;;
70406;SDS011;57821;52.202;0.154;2023-12-28T02:45:38;23.88;;;4.93;;
70406;SDS011;57821;52.202;0.154;2023-12-28T02:48:06;17.25;;;3.13;;
70406;SDS011;57821;52.202;0.154;2023-12-28T02:50:34;20.30;;;3.40;;
70406;SDS011;57821;52.202;0.154;2023-12-28T02:53:02;26.42;;;4.18;;
70406;SDS011;57821;52.202;0.154;2023-12-28T02:55:29;21.67;;;4.32;;
70406;SDS011;57821;52.202;0.154;2023-12-28T02:57:56;27.38;;;4.25;;
70406;SDS011;57821;52.202;0.154;2023-12-28T03:00:27;21.80;;;4.15;;
70406;SDS011;57821;52.202;0.154;2023-12-28T03:03:04;27.20;;;5.30;;
70406;SDS011;57821;52.202;0.154;2023-12-28T03:05:31;22.90;;;3.70;;
70406;SDS011;57821;52.202;0.154;2023-12-28T03:07:58;21.58;;;4.68;;
70406;SDS011;57821;52.202;0.154;2023-12-28T03:10:25;27.23;;;5.63;;
70406;SDS011;57821;52.202;0.154;2023-12-28T03:12:52;19.50;;;5.00;;
70406;SDS011;57821;52.202;0.154;2023-12-28T03:15:19;23.10;;;3.92;;
70406;SDS011;57821;52.202;0.154;2023-12-28T03:17:48;22.83;;;4.03;;
70406;SDS011;57821;52.202;0.154;2023-12-28T03:20:15;22.80;;;5.22;;
70406;SDS011;57821;52.202;0.154;2023-12-28T03:22:42;17.20;;;2.97;;
70406;SDS011;57821;52.202;0.154;2023-12-28T03:25:09;27.75;;;4.45;;
70406;SDS011;57821;52.202;0.154;2023-12-28T03:27:36;19.13;;;3.30;;
70406;SDS011;57821;52.202;0.154;2023-12-28T03:30:03;27.83;;;5.07;;
70406;SDS011;57821;52.202;0.154;2023-12-28T03:32:30;25.88;;;4.50;;
70406;SDS011;57821;52.202;0.154;2023-12-28T03:34:57;19.98;;;4.35;;
70406;SDS011;57821;52.202;0.154;2023-12-28T03:37:24;22.33;;;3.83;;
70406;SDS011;57821;52.202;0.154;2023-12-28T03:39:50;27.88;;;4.75;;
70406;SDS011;57821;52.202;0.154;2023-12-28T03:42:17;19.20;;;3.72;;
70406;SDS011;57821;52.202;0.154;2023-12-28T03:44:44;21.63;;;3.55;;
70406;SDS011;57821;52.202;0.154;2023-12-28T03:47:11;19.63;;;3.35;;
70406;SDS011;57821;52.202;0.154;2023-12-28T03:49:38;24.20;;;4.03;;
70406;SDS011;57821;52.202;0.154;2023-12-28T03:52:05;19.38;;;3.45;;
70406;SDS011;57821;52.202;0.154;2023-12-28T03:54:32;17.38;;;3.55;;
70406;SDS011;57821;52.202;0.154;2023-12-28T03:56:59;17.98;;;3.55;;
70406;SDS011;57821;52.202;0.154;2023-12-28T03:59:26;17.35;;;3.85;;
70406;SDS011;57821;52.202;0.154;2023-12-28T04:01:53;18.90;;;4.30;;
70406;SDS011;57821;52.202;0.154;2023-12-28T04:04:20;22.38;;;3.42;;
70406;SDS011;57821;52.202;0.154;2023-12-28T04:06:48;16.50;;;3.80;;
70406;SDS011;57821;52.202;0.154;2023-12-28T04:09:15;17.33;;;3.10;;
70406;SDS011;57821;52.202;0.154;2023-12-28T04:11:41;19.38;;;4.10;;
70406;SDS011;57821;52.202;0.154;2023-12-28T04:14:09;19.67;;;3.25;;
70406;SDS011;57821;52.202;0.154;2023-12-28T04:16:35;20.38;;;2.83;;
70406;SDS011;57821;52.202;0.154;2023-12-28T04:19:02;13.52;;;2.80;;
70406;SDS011;57821;52.202;0.154;2023-12-28T04:21:29;15.50;;;3.28;;
70406;SDS011;57821;52.202;0.154;2023-12-28T04:23:56;14.02;;;2.20;;
70406;SDS011;57821;52.202;0.154;2023-12-28T04:26:23;13.27;;;2.90;;
70406;SDS011;57821;52.202;0.154;2023-12-28T04:28:49;14.05;;;2.97;;
70406;SDS011;57821;52.202;0.154;2023-12-28T04:31:16;14.93;;;2.80;;
70406;SDS011;57821;52.202;0.154;2023-12-28T04:33:44;12.98;;;2.40;;
70406;SDS011;57821;52.202;0.154;2023-12-28T04:36:11;17.00;;;3.28;;
70406;SDS011;57821;52.202;0.154;2023-12-28T04:38:37;17.85;;;3.47;;
70406;SDS011;57821;52.202;0.154;2023-12-28T04:41:05;16.60;;;3.30;;
70406;SDS011;57821;52.202;0.154;2023-12-28T04:43:32;12.50;;;2.05;;
70406;SDS011;57821;52.202;0.154;2023-12-28T04:46:02;18.45;;;2.92;;
70406;SDS011;57821;52.202;0.154;2023-12-28T04:48:33;13.02;;;2.35;;
70406;SDS011;57821;52.202;0.154;2023-12-28T04:51:04;19.52;;;4.50;;
70406;SDS011;57821;52.202;0.154;2023-12-28T04:53:31;18.73;;;3.25;;
70406;SDS011;57821;52.202;0.154;2023-12-28T04:55:58;16.55;;;2.95;;
70406;SDS011;57821;52.202;0.154;2023-12-28T04:58:25;18.25;;;4.25;;
70406;SDS011;57821;52.202;0.154;2023-12-28T05:00:51;16.83;;;3.05;;
70406;SDS011;57821;52.202;0.154;2023-12-28T05:03:18;18.00;;;3.15;;
70406;SDS011;57821;52.202;0.154;2023-12-28T05:05:45;23.65;;;3.70;;
70406;SDS011;57821;52.202;0.154;2023-12-28T05:08:15;24.20;;;5.10;;
70406;SDS011;57821;52.202;0.154;2023-12-28T05:10:42;23.15;;;3.97;;
70406;SDS011;57821;52.202;0.154;2023-12-28T05:13:09;22.30;;;4.00;;
70406;SDS011;57821;52.202;0.154;2023-12-28T05:15:36;29.52;;;5.00;;
70406;SDS011;57821;52.202;0.154;2023-12-28T05:18:02;26.23;;;4.72;;
70406;SDS011;57821;52.202;0.154;2023-12-28T05:20:30;21.50;;;4.10;;
70406;SDS011;57821;52.202;0.154;2023-12-28T05:22:57;20.60;;;5.00;;
70406;SDS011;57821;52.202;0.154;2023-12-28T05:25:24;20.90;;;4.07;;
70406;SDS011;57821;52.202;0.154;2023-12-28T05:27:51;27.48;;;4.10;;
70406;SDS011;57821;52.202;0.154;2023-12-28T05:30:18;19.27;;;4.07;;
70406;SDS011;57821;52.202;0.154;2023-12-28T05:32:46;23.35;;;4.22;;
70406;SDS011;57821;52.202;0.154;2023-12-28T05:35:13;25.75;;;4.22;;
70406;SDS011;57821;52.202;0.154;2023-12-28T05:37:40;25.55;;;3.80;;
70406;SDS011;57821;52.202;0.154;2023-12-28T05:40:07;28.13;;;4.78;;
70406;SDS011;57821;52.202;0.154;2023-12-28T05:42:35;31.48;;;6.20;;
70406;SDS011;57821;52.202;0.154;2023-12-28T05:45:02;25.20;;;5.22;;
70406;SDS011;57821;52.202;0.154;2023-12-28T05:47:29;22.08;;;4.53;;
70406;SDS011;57821;52.202;0.154;2023-12-28T05:49:56;31.48;;;5.78;;
70406;SDS011;57821;52.202;0.154;2023-12-28T05:52:23;23.90;;;4.55;;
70406;SDS011;57821;52.202;0.154;2023-12-28T05:54:50;31.35;;;6.35;;
70406;SDS011;57821;52.202;0.154;2023-12-28T05:57:16;27.25;;;5.53;;
70406;SDS011;57821;52.202;0.154;2023-12-28T05:59:43;33.85;;;6.10;;
70406;SDS011;57821;52.202;0.154;2023-12-28T06:02:10;27.58;;;5.07;;
70406;SDS011;57821;52.202;0.154;2023-12-28T06:04:37;29.45;;;5.55;;
70406;SDS011;57821;52.202;0.154;2023-12-28T06:07:04;30.60;;;5.88;;
70406;SDS011;57821;52.202;0.154;2023-12-28T06:09:31;32.33;;;6.13;;
70406;SDS011;57821;52.202;0.154;2023-12-28T06:11:59;28.88;;;5.32;;
70406;SDS011;57821;52.202;0.154;2023-12-28T06:14:25;28.63;;;4.78;;
70406;SDS011;57821;52.202;0.154;2023-12-28T06:16:52;33.03;;;5.32;;
70406;SDS011;57821;52.202;0.154;2023-12-28T06:19:19;24.83;;;4.57;;
70406;SDS011;57821;52.202;0.154;2023-12-28T06:21:46;39.45;;;5.45;;
70406;SDS011;57821;52.202;0.154;2023-12-28T06:24:13;19.45;;;4.25;;
70406;SDS011;57821;52.202;0.154;2023-12-28T06:26:43;28.13;;;5.78;;
70406;SDS011;57821;52.202;0.154;2023-12-28T06:29:10;31.15;;;4.88;;
70406;SDS011;57821;52.202;0.154;2023-12-28T06:31:37;32.10;;;6.68;;
70406;SDS011;57821;52.202;0.154;2023-12-28T06:34:05;20.42;;;4.60;;
70406;SDS011;57821;52.202;0.154;2023-12-28T06:36:32;24.23;;;4.40;;
70406;SDS011;57821;52.202;0.154;2023-12-28T06:39:00;24.85;;;4.57;;
70406;SDS011;57821;52.202;0.154;2023-12-28T06:41:27;26.55;;;4.82;;
70406;SDS011;57821;52.202;0.154;2023-12-28T06:43:54;25.55;;;4.03;;
70406;SDS011;57821;52.202;0.154;2023-12-28T06:46:20;22.98;;;3.92;;
70406;SDS011;57821;52.202;0.154;2023-12-28T06:48:50;23.15;;;4.28;;
70406;SDS011;57821;52.202;0.154;2023-12-28T06:51:17;21.45;;;4.40;;
70406;SDS011;57821;52.202;0.154;2023-12-28T06:53:45;25.38;;;4.90;;
70406;SDS011;57821;52.202;0.154;2023-12-28T06:56:13;25.17;;;5.03;;
70406;SDS011;57821;52.202;0.154;2023-12-28T06:58:40;19.65;;;4.15;;
70406;SDS011;57821;52.202;0.154;2023-12-28T07:01:07;23.45;;;4.20;;
70406;SDS011;57821;52.202;0.154;2023-12-28T07:03:34;23.70;;;4.55;;
70406;SDS011;57821;52.202;0.154;2023-12-28T07:06:01;26.00;;;5.03;;
70406;SDS011;57821;52.202;0.154;2023-12-28T07:08:29;24.15;;;4.43;;
70406;SDS011;57821;52.202;0.154;2023-12-28T07:13:53;22.50;;;5.85;;
70406;SDS011;57821;52.202;0.154;2023-12-28T07:16:20;22.77;;;4.38;;
70406;SDS011;57821;52.202;0.154;2023-12-28T07:18:47;23.52;;;4.03;;
70406;SDS011;57821;52.202;0.154;2023-12-28T07:21:14;31.77;;;4.40;;
70406;SDS011;57821;52.202;0.154;2023-12-28T07:23:41;23.20;;;4.75;;
70406;SDS011;57821;52.202;0.154;2023-12-28T07:26:08;15.18;;;3.15;;
70406;SDS011;57821;52.202;0.154;2023-12-28T07:28:35;21.92;;;3.97;;
70406;SDS011;57821;52.202;0.154;2023-12-28T07:31:01;19.33;;;4.10;;
70406;SDS011;57821;52.202;0.154;2023-12-28T07:33:28;21.30;;;3.38;;
70406;SDS011;57821;52.202;0.154;2023-12-28T07:35:55;23.15;;;4.18;;
70406;SDS011;57821;52.202;0.154;2023-12-28T07:38:25;23.80;;;3.55;;
70406;SDS011;57821;52.202;0.154;2023-12-28T07:40:52;26.27;;;4.47;;
70406;SDS011;57821;52.202;0.154;2023-12-28T07:43:19;21.35;;;4.45;;
70406;SDS011;57821;52.202;0.154;2023-12-28T07:45:46;19.60;;;3.40;;
70406;SDS011;57821;52.202;0.154;2023-12-28T07:48:13;21.90;;;4.97;;
70406;SDS011;57821;52.202;0.154;2023-12-28T07:50:40;24.50;;;4.38;;
70406;SDS011;57821;52.202;0.154;2023-12-28T07:53:07;25.73;;;4.82;;
70406;SDS011;57821;52.202;0.154;2023-12-28T07:55:34;22.48;;;3.95;;
70406;SDS011;57821;52.202;0.154;2023-12-28T07:58:00;23.50;;;4.43;;
70406;SDS011;57821;52.202;0.154;2023-12-28T08:00:28;22.38;;;3.72;;
70406;SDS011;57821;52.202;0.154;2023-12-28T08:02:55;23.25;;;4.05;;
70406;SDS011;57821;52.202;0.154;2023-12-28T08:05:22;29.98;;;5.30;;
70406;SDS011;57821;52.202;0.154;2023-12-28T08:07:48;37.53;;;7.55;;
70406;SDS011;57821;52.202;0.154;2023-12-28T08:10:15;24.75;;;4.32;;
70406;SDS011;57821;52.202;0.154;2023-12-28T08:12:42;23.40;;;4.00;;
70406;SDS011;57821;52.202;0.154;2023-12-28T08:15:09;40.03;;;6.78;;
70406;SDS011;57821;52.202;0.154;2023-12-28T08:17:36;34.25;;;4.80;;
70406;SDS011;57821;52.202;0.154;2023-12-28T08:20:03;24.70;;;4.07;;
70406;SDS011;57821;52.202;0.154;2023-12-28T08:22:46;24.80;;;3.95;;
70406;SDS011;57821;52.202;0.154;2023-12-28T08:25:18;25.92;;;5.15;;
70406;SDS011;57821;52.202;0.154;2023-12-28T08:28:07;24.77;;;4.63;;
70406;SDS011;57821;52.202;0.154;2023-12-28T08:30:55;31.67;;;4.65;;
70406;SDS011;57821;52.202;0.154;2023-12-28T08:34:23;29.75;;;5.22;;
70406;SDS011;57821;52.202;0.154;2023-12-28T08:37:29;24.70;;;4.60;;
70406;SDS011;57821;52.202;0.154;2023-12-28T08:39:57;35.30;;;6.20;;
70406;SDS011;57821;52.202;0.154;2023-12-28T08:42:29;28.90;;;5.05;;
70406;SDS011;57821;52.202;0.154;2023-12-28T08:45:54;24.88;;;4.78;;
70406;SDS011;57821;52.202;0.154;2023-12-28T08:48:42;31.70;;;5.38;;
70406;SDS011;57821;52.202;0.154;2023-12-28T08:51:58;35.10;;;6.18;;
70406;SDS011;57821;52.202;0.154;2023-12-28T08:55:28;34.78;;;6.40;;
70406;SDS011;57821;52.202;0.154;2023-12-28T08:58:15;34.00;;;5.60;;
70406;SDS011;57821;52.202;0.154;2023-12-28T09:01:38;28.70;;;6.07;;
70406;SDS011;57821;52.202;0.154;2023-12-28T09:03:58;36.60;;;5.43;;
70406;SDS011;57821;52.202;0.154;2023-12-28T09:06:52;30.45;;;6.30;;
70406;SDS011;57821;52.202;0.154;2023-12-28T09:12:47;37.17;;;6.35;;
70406;SDS011;57821;52.202;0.154;2023-12-28T09:15:39;30.05;;;4.95;;
70406;SDS011;57821;52.202;0.154;2023-12-28T09:18:06;41.20;;;7.28;;
70406;SDS011;57821;52.202;0.154;2023-12-28T09:20:33;30.70;;;5.50;;
70406;SDS011;57821;52.202;0.154;2023-12-28T09:23:01;33.95;;;6.15;;
70406;SDS011;57821;52.202;0.154;2023-12-28T09:25:28;37.22;;;6.38;;
70406;SDS011;57821;52.202;0.154;2023-12-28T09:27:55;40.05;;;5.38;;
70406;SDS011;57821;52.202;0.154;2023-12-28T09:30:22;34.55;;;7.97;;
70406;SDS011;57821;52.202;0.154;2023-12-28T09:32:49;33.13;;;6.68;;
70406;SDS011;57821;52.202;0.154;2023-12-28T09:35:16;32.58;;;5.80;;
70406;SDS011;57821;52.202;0.154;2023-12-28T09:37:43;38.83;;;7.15;;
70406;SDS011;57821;52.202;0.154;2023-12-28T09:40:12;36.70;;;6.63;;
70406;SDS011;57821;52.202;0.154;2023-12-28T09:42:40;41.65;;;7.53;;
70406;SDS011;57821;52.202;0.154;2023-12-28T09:45:14;41.50;;;6.90;;
70406;SDS011;57821;52.202;0.154;2023-12-28T09:47:42;39.80;;;6.53;;
70406;SDS011;57821;52.202;0.154;2023-12-28T09:50:11;38.92;;;7.78;;
70406;SDS011;57821;52.202;0.154;2023-12-28T09:52:41;38.33;;;7.43;;
70406;SDS011;57821;52.202;0.154;2023-12-28T09:55:08;39.05;;;5.68;;
70406;SDS011;57821;52.202;0.154;2023-12-28T09:57:36;31.65;;;5.78;;
70406;SDS011;57821;52.202;0.154;2023-12-28T10:00:04;35.28;;;7.43;;
70406;SDS011;57821;52.202;0.154;2023-12-28T10:02:38;34.42;;;6.10;;
70406;SDS011;57821;52.202;0.154;2023-12-28T10:05:16;35.92;;;6.63;;
70406;SDS011;57821;52.202;0.154;2023-12-28T10:07:44;31.42;;;6.20;;
70406;SDS011;57821;52.202;0.154;2023-12-28T10:10:16;35.78;;;5.85;;
70406;SDS011;57821;52.202;0.154;2023-12-28T10:12:45;27.60;;;6.28;;
70406;SDS011;57821;52.202;0.154;2023-12-28T10:15:13;37.03;;;6.80;;
70406;SDS011;57821;52.202;0.154;2023-12-28T10:17:40;29.02;;;5.65;;
70406;SDS011;57821;52.202;0.154;2023-12-28T10:20:07;32.95;;;5.88;;
70406;SDS011;57821;52.202;0.154;2023-12-28T10:22:36;31.33;;;5.93;;
70406;SDS011;57821;52.202;0.154;2023-12-28T10:25:05;24.27;;;4.47;;
70406;SDS011;57821;52.202;0.154;2023-12-28T10:27:32;33.45;;;4.97;;
70406;SDS011;57821;52.202;0.154;2023-12-28T10:30:04;26.38;;;5.38;;
70406;SDS011;57821;52.202;0.154;2023-12-28T10:32:32;30.85;;;5.18;;
70406;SDS011;57821;52.202;0.154;2023-12-28T10:35:00;26.42;;;5.18;;
70406;SDS011;57821;52.202;0.154;2023-12-28T10:37:27;22.65;;;4.78;;
70406;SDS011;57821;52.202;0.154;2023-12-28T10:39:59;28.67;;;5.47;;
70406;SDS011;57821;52.202;0.154;2023-12-28T10:45:00;23.52;;;5.00;;
70406;SDS011;57821;52.202;0.154;2023-12-28T10:47:31;23.20;;;5.30;;
70406;SDS011;57821;52.202;0.154;2023-12-28T10:50:03;19.92;;;3.63;;
70406;SDS011;57821;52.202;0.154;2023-12-28T10:52:32;21.17;;;4.10;;
70406;SDS011;57821;52.202;0.154;2023-12-28T10:55:08;21.00;;;4.20;;
70406;SDS011;57821;52.202;0.154;2023-12-28T11:00:41;27.98;;;4.55;;
70406;SDS011;57821;52.202;0.154;2023-12-28T11:03:34;21.95;;;4.20;;
70406;SDS011;57821;52.202;0.154;2023-12-28T11:06:04;25.70;;;4.22;;
70406;SDS011;57821;52.202;0.154;2023-12-28T11:08:33;20.80;;;3.97;;
70406;SDS011;57821;52.202;0.154;2023-12-28T11:11:02;14.40;;;3.65;;
70406;SDS011;57821;52.202;0.154;2023-12-28T11:13:31;19.30;;;3.63;;
70406;SDS011;57821;52.202;0.154;2023-12-28T11:15:58;22.02;;;4.22;;
70406;SDS011;57821;52.202;0.154;2023-12-28T11:18:26;25.73;;;3.50;;
70406;SDS011;57821;52.202;0.154;2023-12-28T11:20:55;18.58;;;4.00;;
70406;SDS011;57821;52.202;0.154;2023-12-28T11:23:23;19.02;;;4.57;;
70406;SDS011;57821;52.202;0.154;2023-12-28T11:25:51;17.40;;;3.50;;
70406;SDS011;57821;52.202;0.154;2023-12-28T11:28:18;18.33;;;3.80;;
70406;SDS011;57821;52.202;0.154;2023-12-28T11:30:46;21.95;;;4.20;;
70406;SDS011;57821;52.202;0.154;2023-12-28T11:33:14;21.63;;;4.47;;
70406;SDS011;57821;52.202;0.154;2023-12-28T11:35:41;23.17;;;3.33;;
70406;SDS011;57821;52.202;0.154;2023-12-28T11:38:10;22.83;;;5.32;;
70406;SDS011;57821;52.202;0.154;2023-12-28T11:40:42;20.55;;;3.83;;
70406;SDS011;57821;52.202;0.154;2023-12-28T11:43:15;23.77;;;4.10;;
70406;SDS011;57821;52.202;0.154;2023-12-28T11:45:54;23.10;;;3.85;;
70406;SDS011;57821;52.202;0.154;2023-12-28T11:48:26;24.23;;;5.30;;
70406;SDS011;57821;52.202;0.154;2023-12-28T11:50:56;21.10;;;4.13;;
70406;SDS011;57821;52.202;0.154;2023-12-28T11:53:25;23.65;;;3.88;;
70406;SDS011;57821;52.202;0.154;2023-12-28T11:55:59;30.27;;;5.07;;
70406;SDS011;57821;52.202;0.154;2023-12-28T11:58:33;24.88;;;4.60;;
70406;SDS011;57821;52.202;0.154;2023-12-28T12:01:01;29.80;;;5.50;;
70406;SDS011;57821;52.202;0.154;2023-12-28T12:03:29;26.30;;;4.53;;
70406;SDS011;57821;52.202;0.154;2023-12-28T12:05:58;23.52;;;4.30;;
70406;SDS011;57821;52.202;0.154;2023-12-28T12:08:26;24.42;;;4.38;;
70406;SDS011;57821;52.202;0.154;2023-12-28T12:10:59;35.03;;;5.28;;
70406;SDS011;57821;52.202;0.154;2023-12-28T12:13:28;24.65;;;5.43;;
70406;SDS011;57821;52.202;0.154;2023-12-28T12:15:56;24.70;;;4.72;;
70406;SDS011;57821;52.202;0.154;2023-12-28T12:18:33;27.33;;;4.22;;
70406;SDS011;57821;52.202;0.154;2023-12-28T12:21:01;26.95;;;4.80;;
70406;SDS011;57821;52.202;0.154;2023-12-28T12:23:29;30.02;;;5.43;;
70406;SDS011;57821;52.202;0.154;2023-12-28T12:25:57;21.17;;;4.13;;
70406;SDS011;57821;52.202;0.154;2023-12-28T12:28:24;26.98;;;4.45;;
70406;SDS011;57821;52.202;0.154;2023-12-28T12:30:52;24.63;;;4.65;;
70406;SDS011;57821;52.202;0.154;2023-12-28T12:33:21;25.88;;;4.85;;
70406;SDS011;57821;52.202;0.154;2023-12-28T12:35:50;23.10;;;4.97;;
70406;SDS011;57821;52.202;0.154;2023-12-28T12:38:17;23.38;;;4.45;;
70406;SDS011;57821;52.202;0.154;2023-12-28T12:40:44;28.55;;;4.93;;
70406;SDS011;57821;52.202;0.154;2023-12-28T12:43:11;26.42;;;4.38;;
70406;SDS011;57821;52.202;0.154;2023-12-28T12:45:38;25.00;;;4.13;;
70406;SDS011;57821;52.202;0.154;2023-12-28T12:48:06;20.95;;;3.63;;
70406;SDS011;57821;52.202;0.154;2023-12-28T12:50:33;18.02;;;3.65;;
70406;SDS011;57821;52.202;0.154;2023-12-28T12:53:00;18.83;;;3.17;;
70406;SDS011;57821;52.202;0.154;2023-12-28T12:55:27;15.50;;;3.88;;
70406;SDS011;57821;52.202;0.154;2023-12-28T12:57:55;15.95;;;2.53;;
70406;SDS011;57821;52.202;0.154;2023-12-28T13:00:24;14.15;;;3.30;;
70406;SDS011;57821;52.202;0.154;2023-12-28T13:02:51;14.95;;;2.85;;
70406;SDS011;57821;52.202;0.154;2023-12-28T13:05:19;13.98;;;2.13;;
70406;SDS011;57821;52.202;0.154;2023-12-28T13:07:46;9.20;;;2.03;;
70406;SDS011;57821;52.202;0.154;2023-12-28T13:10:13;14.10;;;2.40;;
70406;SDS011;57821;52.202;0.154;2023-12-28T13:12:40;14.32;;;2.47;;
70406;SDS011;57821;52.202;0.154;2023-12-28T13:15:07;11.63;;;2.28;;
70406;SDS011;57821;52.202;0.154;2023-12-28T13:17:36;16.63;;;2.20;;
70406;SDS011;57821;52.202;0.154;2023-12-28T13:20:04;24.60;;;3.10;;
70406;SDS011;57821;52.202;0.154;2023-12-28T13:22:32;14.40;;;2.53;;
70406;SDS011;57821;52.202;0.154;2023-12-28T13:25:00;12.82;;;1.55;;
70406;SDS011;57821;52.202;0.154;2023-12-28T13:27:28;17.05;;;3.03;;
70406;SDS011;57821;52.202;0.154;2023-12-28T13:29:55;14.93;;;2.55;;
70406;SDS011;57821;52.202;0.154;2023-12-28T13:32:22;14.35;;;2.58;;
70406;SDS011;57821;52.202;0.154;2023-12-28T13:34:50;9.60;;;2.85;;
70406;SDS011;57821;52.202;0.154;2023-12-28T13:37:17;12.20;;;2.35;;
70406;SDS011;57821;52.202;0.154;2023-12-28T13:39:44;11.65;;;2.00;;
70406;SDS011;57821;52.202;0.154;2023-12-28T13:42:11;15.02;;;2.15;;
70406;SDS011;57821;52.202;0.154;2023-12-28T13:44:37;12.68;;;2.78;;
70406;SDS011;57821;52.202;0.154;2023-12-28T13:47:05;15.05;;;2.40;;
70406;SDS011;57821;52.202;0.154;2023-12-28T13:49:34;18.95;;;3.25;;
70406;SDS011;57821;52.202;0.154;2023-12-28T13:52:01;16.45;;;3.25;;
70406;SDS011;57821;52.202;0.154;2023-12-28T13:54:28;15.13;;;2.47;;
70406;SDS011;57821;52.202;0.154;2023-12-28T13:56:55;20.23;;;3.65;;
70406;SDS011;57821;52.202;0.154;2023-12-28T13:59:25;19.90;;;3.75;;
70406;SDS011;57821;52.202;0.154;2023-12-28T14:01:51;19.20;;;3.35;;
70406;SDS011;57821;52.202;0.154;2023-12-28T14:04:18;22.77;;;4.53;;
70406;SDS011;57821;52.202;0.154;2023-12-28T14:06:55;19.98;;;3.38;;
70406;SDS011;57821;52.202;0.154;2023-12-28T14:10:25;14.23;;;3.13;;
70406;SDS011;57821;52.202;0.154;2023-12-28T14:12:51;17.95;;;3.58;;
70406;SDS011;57821;52.202;0.154;2023-12-28T14:16:21;18.35;;;3.15;;
70406;SDS011;57821;52.202;0.154;2023-12-28T14:18:48;17.10;;;3.97;;
70406;SDS011;57821;52.202;0.154;2023-12-28T14:21:15;16.38;;;2.97;;
70406;SDS011;57821;52.202;0.154;2023-12-28T14:24:11;27.20;;;4.28;;
70406;SDS011;57821;52.202;0.154;2023-12-28T14:26:47;17.98;;;3.00;;
70406;SDS011;57821;52.202;0.154;2023-12-28T14:29:19;21.90;;;3.45;;
70406;SDS011;57821;52.202;0.154;2023-12-28T14:31:46;14.52;;;3.47;;
70406;SDS011;57821;52.202;0.154;2023-12-28T14:34:13;14.55;;;2.03;;
70406;SDS011;57821;52.202;0.154;2023-12-28T14:36:41;15.98;;;2.83;;
70406;SDS011;57821;52.202;0.154;2023-12-28T14:39:12;14.18;;;2.67;;
70406;SDS011;57821;52.202;0.154;2023-12-28T14:41:40;16.90;;;2.55;;
70406;SDS011;57821;52.202;0.154;2023-12-28T14:44:10;19.10;;;3.20;;
70406;SDS011;57821;52.202;0.154;2023-12-28T14:46:37;14.35;;;2.13;;
70406;SDS011;57821;52.202;0.154;2023-12-28T14:49:04;14.25;;;2.88;;
70406;SDS011;57821;52.202;0.154;2023-12-28T14:51:30;11.38;;;2.25;;
70406;SDS011;57821;52.202;0.154;2023-12-28T14:53:57;15.20;;;2.75;;
70406;SDS011;57821;52.202;0.154;2023-12-28T14:56:24;14.93;;;3.33;;
70406;SDS011;57821;52.202;0.154;2023-12-28T14:58:51;12.43;;;3.28;;
70406;SDS011;57821;52.202;0.154;2023-12-28T15:01:18;14.10;;;2.58;;
70406;SDS011;57821;52.202;0.154;2023-12-28T15:03:47;12.88;;;2.28;;
70406;SDS011;57821;52.202;0.154;2023-12-28T15:06:14;14.88;;;2.33;;
70406;SDS011;57821;52.202;0.154;2023-12-28T15:08:41;11.43;;;2.50;;
70406;SDS011;57821;52.202;0.154;2023-12-28T15:11:08;16.02;;;2.17;;